San Luis, Argentina
Current Conditions -  °F | °C
As of 6:00 PM on Saturday 22 Nov 2014 (Local Time) from SAOC Reporting Station
Clear Clear  
Wind Chill: 77°   Ceiling: Unl
Heat Index: 78°   Visibility: 6mi
Dew Point: 52°   Wind: 10mph
Humidity: 41%   Direction: 70°ENE
Pressure: 29.85"   Gusts: NA
Location:  33.31°S, 66.35°W
Report Text: SAOC 222100Z 07009KT CAVOK 25/11 Q1011
Loading
Personal Weather Stations






























Interactive Weather Map New forecast layout! Learn more

10-Day Weather Forecast

Advertisements
Track Severe Weather on mobile